createdAt,value
2022-11-07T00:02:11.487Z,100.00
2022-11-07T00:04:39.924Z,100.00
2022-11-07T00:07:08.437Z,100.00
2022-11-07T00:09:36.802Z,100.00
2022-11-07T00:12:05.705Z,100.00
2022-11-07T00:14:35.836Z,100.00
2022-11-07T00:17:04.133Z,100.00
2022-11-07T00:19:32.512Z,100.00
2022-11-07T00:22:00.768Z,100.00
2022-11-07T00:24:29.198Z,100.00
2022-11-07T00:26:57.541Z,100.00
2022-11-07T00:29:25.833Z,90.94
2022-11-07T00:31:55.437Z,96.81
2022-11-07T00:34:23.866Z,88.28
2022-11-07T00:36:52.193Z,83.85
2022-11-07T00:39:20.427Z,78.65
2022-11-07T00:41:49.547Z,81.36
2022-11-07T00:44:17.858Z,76.05
2022-11-07T00:46:46.151Z,74.29
2022-11-07T00:49:15.830Z,73.39
2022-11-07T00:51:44.141Z,71.27
2022-11-07T00:54:12.428Z,71.67
2022-11-07T00:56:40.746Z,69.94
2022-11-07T00:59:09.375Z,69.73
2022-11-07T01:01:37.784Z,68.47
2022-11-07T01:04:23.792Z,71.00
2022-11-07T01:09:45.584Z,67.44
2022-11-07T01:12:13.890Z,66.96
2022-11-07T01:14:42.262Z,65.96
2022-11-07T01:17:10.610Z,67.57
2022-11-07T01:19:38.951Z,69.16
2022-11-07T01:22:08.574Z,80.61
2022-11-07T01:24:37.021Z,92.31
2022-11-07T01:27:05.484Z,90.82
2022-11-07T01:29:33.812Z,90.96
2022-11-07T01:32:02.127Z,100.00
2022-11-07T01:34:30.468Z,100.00
2022-11-07T01:36:58.836Z,98.56
2022-11-07T01:39:28.483Z,100.00
2022-11-07T01:41:56.738Z,100.00
2022-11-07T01:44:49.956Z,84.47
2022-11-07T01:47:18.379Z,75.21
2022-11-07T01:49:47.188Z,73.90
2022-11-07T01:52:18.965Z,77.94
2022-11-07T01:54:50.902Z,94.84
2022-11-07T01:57:22.851Z,95.98
2022-11-07T01:59:53.637Z,89.56
2022-11-07T02:02:24.688Z,93.47
2022-11-07T02:04:53.082Z,87.29
2022-11-07T02:07:22.916Z,90.52
2022-11-07T02:09:53.647Z,94.76
2022-11-07T02:12:23.826Z,100.00
2022-11-07T02:14:52.159Z,100.00
2022-11-07T02:17:20.497Z,100.00
2022-11-07T02:19:50.893Z,100.00
2022-11-07T02:22:26.031Z,100.00
2022-11-07T02:24:59.632Z,100.00
2022-11-07T02:27:30.437Z,100.00
2022-11-07T02:30:05.320Z,100.00
2022-11-07T02:32:33.876Z,100.00
2022-11-07T02:35:03.478Z,100.00
2022-11-07T02:37:33.675Z,100.00
2022-11-07T02:40:06.745Z,100.00
2022-11-07T02:42:44.403Z,100.00
2022-11-07T02:45:15.548Z,100.00
2022-11-07T02:47:43.982Z,100.00
2022-11-07T02:50:14.576Z,100.00
2022-11-07T02:52:42.678Z,100.00
2022-11-07T02:55:14.058Z,100.00
2022-11-07T02:57:42.958Z,100.00
2022-11-07T03:00:13.818Z,100.00
2022-11-07T03:02:46.909Z,100.00
2022-11-07T03:05:15.925Z,100.00
2022-11-07T03:07:44.533Z,100.00
2022-11-07T03:10:15.488Z,100.00
2022-11-07T03:12:44.149Z,100.00
2022-11-07T03:15:13.171Z,100.00
2022-11-07T03:17:41.563Z,100.00
2022-11-07T03:20:11.460Z,100.00
2022-11-07T03:22:39.938Z,100.00
2022-11-07T03:25:09.065Z,100.00
2022-11-07T03:27:47.119Z,100.00
2022-11-07T03:30:15.518Z,100.00
2022-11-07T03:32:44.106Z,100.00
2022-11-07T03:35:12.647Z,100.00
2022-11-07T03:37:41.072Z,100.00
2022-11-07T03:40:10.319Z,100.00
2022-11-07T03:42:43.525Z,100.00
2022-11-07T03:45:13.271Z,100.00
2022-11-07T03:47:43.258Z,100.00
2022-11-07T03:50:13.823Z,100.00
2022-11-07T03:52:41.939Z,100.00
2022-11-07T03:55:11.016Z,100.00
2022-11-07T03:57:39.612Z,100.00
2022-11-07T04:00:10.985Z,100.00
2022-11-07T04:02:39.520Z,100.00
2022-11-07T04:05:08.595Z,100.00
2022-11-07T04:07:36.951Z,100.00
2022-11-07T04:10:05.811Z,100.00
2022-11-07T04:12:51.836Z,100.00
2022-11-07T04:15:38.891Z,100.00
2022-11-07T04:18:07.202Z,100.00
2022-11-07T04:20:35.540Z,100.00
2022-11-07T04:23:03.925Z,100.00
2022-11-07T04:25:50.009Z,100.00
2022-11-07T04:28:18.870Z,100.00
2022-11-07T04:30:48.610Z,100.00
2022-11-07T04:33:17.190Z,100.00
2022-11-07T04:35:45.697Z,100.00
2022-11-07T04:38:14.561Z,100.00
2022-11-07T04:40:42.922Z,100.00
2022-11-07T04:43:11.639Z,100.00
2022-11-07T04:45:40.627Z,100.00
2022-11-07T04:48:12.795Z,100.00
2022-11-07T04:50:41.589Z,100.00
2022-11-07T04:53:13.101Z,100.00
2022-11-07T04:55:41.701Z,100.00
2022-11-07T04:58:10.156Z,100.00
2022-11-07T05:00:38.742Z,100.00
2022-11-07T05:03:07.041Z,100.00
2022-11-07T05:05:36.960Z,100.00
2022-11-07T05:08:05.651Z,100.00
2022-11-07T05:10:34.784Z,100.00
2022-11-07T05:13:03.382Z,98.71
2022-11-07T05:15:31.666Z,95.24
2022-11-07T05:17:59.968Z,95.75
2022-11-07T05:20:30.556Z,93.51
2022-11-07T05:23:19.392Z,100.00
2022-11-07T05:25:49.641Z,100.00
2022-11-07T05:28:25.761Z,100.00
2022-11-07T05:30:59.238Z,100.00
2022-11-07T05:33:27.794Z,98.68
2022-11-07T05:35:56.266Z,99.89
2022-11-07T05:38:25.946Z,95.47
2022-11-07T05:40:54.323Z,100.00
2022-11-07T05:43:22.610Z,100.00
2022-11-07T05:45:52.476Z,100.00
2022-11-07T05:48:20.845Z,100.00
2022-11-07T05:50:49.097Z,100.00
2022-11-07T05:53:17.947Z,100.00
2022-11-07T05:55:48.413Z,100.00
2022-11-07T05:58:16.792Z,100.00
2022-11-07T06:00:45.121Z,100.00
2022-11-07T06:03:14.304Z,100.00
2022-11-07T06:05:43.873Z,100.00
2022-11-07T06:08:13.510Z,100.00
2022-11-07T06:10:42.870Z,100.00
2022-11-07T06:13:15.255Z,97.31
2022-11-07T06:15:45.524Z,100.00
2022-11-07T06:18:15.848Z,100.00
2022-11-07T06:20:44.113Z,98.46
2022-11-07T06:23:12.941Z,89.88
2022-11-07T06:25:41.437Z,94.98
2022-11-07T06:28:12.630Z,85.84
2022-11-07T06:30:41.328Z,84.01
2022-11-07T06:33:13.612Z,89.54
2022-11-07T06:35:42.709Z,83.38
2022-11-07T06:38:12.192Z,79.71
2022-11-07T06:40:41.204Z,78.79
2022-11-07T06:43:10.659Z,77.42
2022-11-07T06:45:40.412Z,76.73
2022-11-07T06:48:09.684Z,77.07
2022-11-07T06:50:44.093Z,76.71
2022-11-07T06:53:14.672Z,75.88
2022-11-07T06:55:43.570Z,73.90
2022-11-07T06:58:11.953Z,73.00
2022-11-07T07:00:41.667Z,71.55
2022-11-07T07:08:58.696Z,70.07
2022-11-07T07:11:27.007Z,68.16
2022-11-07T07:14:01.174Z,66.81
2022-11-07T07:16:31.955Z,64.08
2022-11-07T07:19:00.268Z,69.10
2022-11-07T07:21:28.602Z,65.75
2022-11-07T07:23:56.956Z,62.50
2022-11-07T07:26:25.329Z,64.60
2022-11-07T07:28:53.707Z,61.62
2022-11-07T07:31:23.931Z,59.50
2022-11-07T07:33:53.700Z,60.11
2022-11-07T07:36:23.372Z,58.36
2022-11-07T07:38:52.185Z,62.02
2022-11-07T07:41:20.834Z,59.38
2022-11-07T07:43:49.092Z,60.95
2022-11-07T07:46:21.257Z,60.28
2022-11-07T07:48:49.879Z,59.44
2022-11-07T07:51:19.927Z,62.44
2022-11-07T07:53:48.256Z,64.59
2022-11-07T07:56:17.698Z,63.18
2022-11-07T07:58:46.552Z,59.70
2022-11-07T08:01:14.895Z,56.77
2022-11-07T08:04:00.684Z,59.17
2022-11-07T08:06:32.391Z,59.58
2022-11-07T08:09:00.654Z,59.24
2022-11-07T08:11:30.094Z,59.54
2022-11-07T08:14:01.242Z,58.53
2022-11-07T08:16:30.249Z,59.64
2022-11-07T08:18:58.542Z,60.42
2022-11-07T08:21:26.913Z,57.95
2022-11-07T08:23:57.483Z,59.31
2022-11-07T08:26:25.996Z,59.00
2022-11-07T08:28:55.216Z,56.15
2022-11-07T08:31:23.848Z,56.42
2022-11-07T08:33:52.475Z,55.26
2022-11-07T08:36:20.893Z,56.68
2022-11-07T08:38:49.206Z,59.12
2022-11-07T08:41:22.215Z,61.31
2022-11-07T08:43:51.043Z,61.02
2022-11-07T08:46:19.502Z,62.89
2022-11-07T08:48:47.802Z,66.22
2022-11-07T08:51:16.070Z,67.29
2022-11-07T08:53:44.382Z,69.61
2022-11-07T08:56:12.655Z,69.91
2022-11-07T08:58:42.327Z,70.29
2022-11-07T09:01:11.365Z,65.90
2022-11-07T09:03:54.781Z,65.58
2022-11-07T09:06:26.085Z,64.32
2022-11-07T09:08:54.447Z,68.91
2022-11-07T09:11:22.904Z,63.75
2022-11-07T09:13:53.431Z,66.50
2022-11-07T09:16:21.707Z,66.88
2022-11-07T09:21:22.636Z,67.63
2022-11-07T09:23:51.612Z,61.98
2022-11-07T09:26:20.026Z,66.08
2022-11-07T09:28:51.641Z,70.28
2022-11-07T09:31:24.071Z,60.23
2022-11-07T09:33:52.868Z,62.48
2022-11-07T09:36:22.130Z,58.66
2022-11-07T09:38:50.491Z,58.38
2022-11-07T09:41:30.405Z,58.28
2022-11-07T09:44:06.037Z,59.90
2022-11-07T09:46:43.655Z,65.40
2022-11-07T09:49:16.339Z,57.25
2022-11-07T09:51:48.310Z,55.51
2022-11-07T09:54:19.653Z,58.51
2022-11-07T09:56:48.135Z,60.06
2022-11-07T09:59:21.402Z,57.77
2022-11-07T10:01:51.248Z,57.78
2022-11-07T10:04:26.191Z,57.72
2022-11-07T10:06:58.780Z,59.99
2022-11-07T10:09:34.571Z,58.59
2022-11-07T10:12:08.536Z,61.12
2022-11-07T10:14:45.334Z,58.81
2022-11-07T10:17:20.785Z,56.23
2022-11-07T10:20:05.740Z,53.17
2022-11-07T10:22:43.435Z,61.91
2022-11-07T10:25:21.651Z,59.25
2022-11-07T10:27:53.796Z,61.83
2022-11-07T10:30:22.829Z,60.12
2022-11-07T10:32:58.750Z,63.10
2022-11-07T10:35:30.252Z,62.04
2022-11-07T10:38:00.424Z,59.62
2022-11-07T10:40:33.583Z,65.11
2022-11-07T10:43:03.965Z,63.24
2022-11-07T10:45:32.856Z,62.14
2022-11-07T10:48:04.149Z,62.80
2022-11-07T10:50:32.886Z,58.98
2022-11-07T10:53:02.457Z,59.55
2022-11-07T10:55:35.001Z,58.42
2022-11-07T10:58:07.746Z,59.67
2022-11-07T11:00:39.677Z,62.49
2022-11-07T11:03:28.923Z,63.91
2022-11-07T11:06:11.054Z,60.88
2022-11-07T11:08:40.352Z,58.50
2022-11-07T11:11:31.492Z,57.67
2022-11-07T11:14:08.387Z,59.79
2022-11-07T11:16:38.649Z,57.01
2022-11-07T11:19:18.971Z,58.20
2022-11-07T11:21:48.629Z,53.90
2022-11-07T11:24:27.482Z,52.00
2022-11-07T11:26:57.679Z,59.86
2022-11-07T11:29:34.285Z,58.14
2022-11-07T11:32:05.469Z,58.56
2022-11-07T11:34:43.288Z,58.90
2022-11-07T11:37:14.374Z,56.68
2022-11-07T11:39:46.578Z,56.10
2022-11-07T11:42:22.338Z,52.42
2022-11-07T11:44:52.175Z,57.60
2022-11-07T11:47:23.866Z,56.47
2022-11-07T11:49:55.576Z,56.19
2022-11-07T11:52:25.933Z,59.36
2022-11-07T11:54:57.069Z,57.78
2022-11-07T11:57:28.726Z,53.64
2022-11-07T12:00:07.054Z,51.94
2022-11-07T12:02:56.919Z,54.91
2022-11-07T12:05:41.007Z,54.67
2022-11-07T12:08:18.314Z,54.46
2022-11-07T12:10:50.942Z,52.50
2022-11-07T12:13:30.399Z,53.11
2022-11-07T12:16:07.596Z,51.64
2022-11-07T12:18:40.146Z,49.88
2022-11-07T12:21:18.379Z,50.05
2022-11-07T12:23:58.815Z,50.15
2022-11-07T12:26:30.593Z,47.68
2022-11-07T12:29:05.526Z,48.57
2022-11-07T12:31:44.879Z,49.60
2022-11-07T12:34:22.185Z,47.74
2022-11-07T12:37:02.868Z,45.57
2022-11-07T12:39:39.776Z,47.31
2022-11-07T12:42:09.785Z,49.55
2022-11-07T12:45:00.526Z,50.22
2022-11-07T12:47:42.083Z,49.67
2022-11-07T12:50:19.620Z,51.82
2022-11-07T12:53:00.693Z,48.87
2022-11-07T12:55:34.526Z,47.59
2022-11-07T12:58:03.836Z,48.06
2022-11-07T13:00:32.287Z,45.79
2022-11-07T13:03:26.923Z,47.42
2022-11-07T13:06:07.241Z,45.27
2022-11-07T13:08:40.293Z,45.31
2022-11-07T13:11:15.127Z,46.30
2022-11-07T13:13:53.667Z,47.33
2022-11-07T13:16:25.490Z,48.81
2022-11-07T13:18:53.849Z,50.52
2022-11-07T13:21:22.797Z,50.42
2022-11-07T13:23:52.785Z,51.60
2022-11-07T13:29:34.764Z,49.66
2022-11-07T13:32:08.628Z,50.88
2022-11-07T13:34:51.261Z,50.79
2022-11-07T13:37:22.287Z,51.41
2022-11-07T13:39:54.651Z,53.76
2022-11-07T13:42:25.337Z,52.94
2022-11-07T13:44:56.103Z,52.85
2022-11-07T13:47:29.666Z,53.74
2022-11-07T13:50:01.870Z,51.30
2022-11-07T13:52:38.244Z,52.84
2022-11-07T13:55:13.817Z,50.37
2022-11-07T13:57:44.184Z,51.38
2022-11-07T14:00:15.324Z,50.66
2022-11-07T14:02:52.174Z,52.52
2022-11-07T14:05:23.893Z,52.17
2022-11-07T14:07:55.265Z,47.17
2022-11-07T14:10:27.584Z,48.23
2022-11-07T14:13:03.004Z,49.12
2022-11-07T14:15:32.012Z,49.10
2022-11-07T14:18:00.399Z,48.78
2022-11-07T14:20:29.865Z,48.64
2022-11-07T14:23:00.621Z,46.76
2022-11-07T14:25:31.649Z,47.83
2022-11-07T14:28:00.476Z,47.69
2022-11-07T14:30:30.595Z,46.88
2022-11-07T14:33:00.864Z,45.96
2022-11-07T14:35:30.810Z,47.22
2022-11-07T14:37:59.695Z,46.12
2022-11-07T14:40:29.039Z,48.08
2022-11-07T14:42:58.689Z,48.71
2022-11-07T14:46:05.693Z,47.71
2022-11-07T14:48:16.944Z,50.30
2022-11-07T14:50:46.017Z,49.03
2022-11-07T14:53:18.722Z,49.70
2022-11-07T14:55:49.435Z,49.16
2022-11-07T14:58:21.561Z,50.32
2022-11-07T15:00:53.699Z,49.24
2022-11-07T15:03:23.179Z,47.77
2022-11-07T15:05:51.619Z,46.80
2022-11-07T15:08:28.184Z,47.08
2022-11-07T15:11:04.971Z,47.32
2022-11-07T15:13:35.572Z,47.07
2022-11-07T15:16:04.649Z,46.66
2022-11-07T15:18:35.812Z,47.39
2022-11-07T15:21:04.042Z,48.47
2022-11-07T15:23:34.253Z,47.30
2022-11-07T15:26:11.662Z,47.07
2022-11-07T15:28:48.983Z,47.35
2022-11-07T15:31:22.358Z,46.09
2022-11-07T15:33:51.338Z,47.37
2022-11-07T15:36:20.171Z,47.58
2022-11-07T15:38:49.710Z,47.17
2022-11-07T15:41:17.985Z,47.23
2022-11-07T15:43:47.594Z,47.18
2022-11-07T15:46:26.523Z,47.24
2022-11-07T15:48:54.891Z,46.93
2022-11-07T15:51:23.175Z,47.42
2022-11-07T15:53:51.456Z,47.59
2022-11-07T15:56:22.071Z,47.79
2022-11-07T15:58:51.667Z,47.74
2022-11-07T16:01:19.960Z,48.22
2022-11-07T16:03:48.318Z,47.95
2022-11-07T16:06:21.582Z,48.51
2022-11-07T16:08:50.106Z,48.74
2022-11-07T16:11:18.382Z,48.79
2022-11-07T16:13:46.959Z,48.70
2022-11-07T16:16:20.760Z,49.08
2022-11-07T16:18:50.958Z,49.59
2022-11-07T16:21:19.979Z,51.62
2022-11-07T16:23:49.730Z,53.69
2022-11-07T16:26:23.955Z,55.33
2022-11-07T16:28:52.253Z,55.37
2022-11-07T16:31:22.245Z,55.97
2022-11-07T16:33:50.708Z,56.22
2022-11-07T16:36:21.815Z,56.74
2022-11-07T16:38:50.490Z,57.40
2022-11-07T16:41:19.282Z,58.35
2022-11-07T16:43:48.410Z,57.61
2022-11-07T16:46:18.449Z,58.90
2022-11-07T16:48:50.329Z,59.57
2022-11-07T16:51:20.724Z,60.28
2022-11-07T16:53:49.160Z,62.10
2022-11-07T16:56:24.753Z,63.90
2022-11-07T16:58:54.574Z,67.21
2022-11-07T17:01:24.113Z,68.81
2022-11-07T17:03:54.283Z,76.57
2022-11-07T17:06:28.006Z,79.62
2022-11-07T17:09:03.305Z,78.58
2022-11-07T17:11:35.606Z,74.07
2022-11-07T17:14:03.841Z,70.88
2022-11-07T17:16:35.577Z,69.51
2022-11-07T17:19:06.003Z,68.74
2022-11-07T17:21:36.389Z,67.62
2022-11-07T17:24:05.522Z,67.06
2022-11-07T17:26:36.940Z,66.35
2022-11-07T17:29:06.629Z,67.03
2022-11-07T17:31:34.943Z,68.03
2022-11-07T17:34:03.238Z,69.73
2022-11-07T17:36:37.544Z,71.82
2022-11-07T17:39:11.599Z,72.24
2022-11-07T17:41:40.794Z,81.47
2022-11-07T17:44:09.290Z,75.92
2022-11-07T17:46:40.774Z,74.52
2022-11-07T17:49:09.793Z,74.88
2022-11-07T17:51:40.277Z,74.20
2022-11-07T17:54:09.220Z,73.85
2022-11-07T17:56:37.630Z,73.95
2022-11-07T17:59:07.765Z,74.42
2022-11-07T18:01:37.555Z,73.26
2022-11-07T18:04:07.126Z,73.90
2022-11-07T18:06:36.947Z,73.91
2022-11-07T18:09:08.353Z,74.00
2022-11-07T18:11:36.873Z,72.74
2022-11-07T18:14:05.188Z,73.60
2022-11-07T18:16:36.099Z,74.43
2022-11-07T18:19:05.393Z,73.90
2022-11-07T18:21:33.997Z,75.67
2022-11-07T18:24:02.260Z,77.66
2022-11-07T18:26:33.454Z,82.32
2022-11-07T18:29:03.463Z,82.43
2022-11-07T18:31:31.952Z,90.91
2022-11-07T18:34:01.655Z,100.00
2022-11-07T18:36:30.781Z,100.00
2022-11-07T18:39:02.914Z,100.00
2022-11-07T18:41:32.739Z,97.19
2022-11-07T18:44:04.821Z,92.90
2022-11-07T18:46:34.220Z,94.48
2022-11-07T18:49:02.614Z,96.23
2022-11-07T18:51:30.903Z,99.41
2022-11-07T18:54:01.034Z,99.72
2022-11-07T18:56:29.521Z,99.23
2022-11-07T18:58:59.167Z,95.88
2022-11-07T19:01:29.392Z,95.22
2022-11-07T19:04:00.407Z,94.76
2022-11-07T19:06:30.690Z,94.69
2022-11-07T19:08:59.124Z,94.71
2022-11-07T19:11:29.793Z,95.41
2022-11-07T19:14:00.340Z,94.05
2022-11-07T19:16:28.621Z,96.19
2022-11-07T19:18:57.054Z,98.93
2022-11-07T19:21:25.402Z,96.74
2022-11-07T19:23:53.726Z,98.94
2022-11-07T19:26:22.043Z,100.00
2022-11-07T19:28:50.551Z,100.00
2022-11-07T19:31:20.252Z,100.00
2022-11-07T19:33:48.569Z,100.00
2022-11-07T19:36:19.825Z,100.00
2022-11-07T19:38:48.853Z,100.00
2022-11-07T19:41:18.043Z,100.00
2022-11-07T19:43:49.957Z,100.00
2022-11-07T19:46:21.296Z,100.00
2022-11-07T19:48:50.829Z,100.00
2022-11-07T19:51:22.738Z,100.00
2022-11-07T19:53:54.867Z,100.00
2022-11-07T19:56:23.842Z,100.00
2022-11-07T19:58:52.267Z,100.00
2022-11-07T20:01:24.206Z,100.00
2022-11-07T20:03:53.604Z,100.00
2022-11-07T20:06:24.022Z,100.00
2022-11-07T20:08:52.476Z,100.00
2022-11-07T20:11:23.192Z,100.00
2022-11-07T20:13:52.838Z,100.00
2022-11-07T20:16:22.905Z,100.00
2022-11-07T20:18:51.201Z,100.00
2022-11-07T20:21:21.173Z,100.00
2022-11-07T20:23:53.417Z,100.00
2022-11-07T20:26:23.229Z,100.00
2022-11-07T20:28:51.990Z,100.00
2022-11-07T20:31:25.189Z,100.00
2022-11-07T20:33:54.183Z,100.00
2022-11-07T20:36:22.909Z,100.00
2022-11-07T20:38:51.233Z,100.00
2022-11-07T20:41:23.042Z,100.00
2022-11-07T20:43:54.178Z,100.00
2022-11-07T20:46:24.047Z,100.00
2022-11-07T20:48:53.492Z,100.00
2022-11-07T20:51:25.194Z,100.00
2022-11-07T20:53:53.855Z,100.00
2022-11-07T20:56:23.145Z,100.00
2022-11-07T20:58:51.933Z,100.00
2022-11-07T21:01:21.857Z,100.00
2022-11-07T21:03:52.140Z,100.00
2022-11-07T21:06:20.792Z,100.00
2022-11-07T21:08:50.252Z,100.00
2022-11-07T21:11:18.917Z,100.00
2022-11-07T21:13:52.646Z,100.00
2022-11-07T21:16:22.728Z,100.00
2022-11-07T21:18:53.607Z,100.00
2022-11-07T21:21:24.054Z,100.00
2022-11-07T21:23:52.989Z,100.00
2022-11-07T21:26:23.852Z,100.00
2022-11-07T21:28:52.323Z,100.00
2022-11-07T21:31:23.933Z,100.00
2022-11-07T21:33:53.785Z,100.00
2022-11-07T21:36:23.660Z,100.00
2022-11-07T21:38:52.256Z,100.00
2022-11-07T21:41:20.757Z,100.00
2022-11-07T21:43:49.475Z,100.00
2022-11-07T21:46:19.946Z,100.00
2022-11-07T21:48:48.595Z,100.00
2022-11-07T21:51:20.613Z,100.00
2022-11-07T21:53:49.452Z,100.00
2022-11-07T21:56:22.574Z,100.00
2022-11-07T21:58:51.875Z,100.00
2022-11-07T22:01:21.273Z,100.00
2022-11-07T22:04:08.011Z,100.00
2022-11-07T22:06:40.219Z,100.00
2022-11-07T22:09:10.005Z,100.00
2022-11-07T22:11:38.849Z,100.00
2022-11-07T22:14:07.263Z,100.00
2022-11-07T22:16:36.255Z,100.00
2022-11-07T22:19:09.729Z,100.00
2022-11-07T22:21:42.180Z,100.00
2022-11-07T22:24:11.143Z,100.00
2022-11-07T22:26:39.494Z,100.00
2022-11-07T22:29:07.992Z,100.00
2022-11-07T22:31:36.363Z,100.00
2022-11-07T22:34:04.869Z,100.00
2022-11-07T22:36:33.335Z,100.00
2022-11-07T22:39:03.102Z,100.00
2022-11-07T22:41:31.456Z,100.00
2022-11-07T22:43:59.952Z,100.00
2022-11-07T22:46:29.896Z,100.00
2022-11-07T22:48:59.159Z,100.00
2022-11-07T22:51:28.736Z,100.00
2022-11-07T22:53:58.069Z,100.00
2022-11-07T22:56:27.770Z,100.00
2022-11-07T22:58:56.157Z,100.00
2022-11-07T23:01:26.335Z,100.00
2022-11-07T23:03:55.712Z,100.00
2022-11-07T23:06:24.978Z,100.00
2022-11-07T23:08:53.928Z,100.00
2022-11-07T23:14:19.320Z,100.00
2022-11-07T23:16:49.062Z,100.00
2022-11-07T23:19:19.206Z,100.00
2022-11-07T23:21:47.471Z,100.00
2022-11-07T23:24:15.870Z,100.00
2022-11-07T23:26:44.697Z,100.00
2022-11-07T23:29:18.971Z,100.00
2022-11-07T23:31:48.634Z,100.00
2022-11-07T23:34:17.453Z,100.00
2022-11-07T23:36:45.763Z,100.00
2022-11-07T23:39:16.216Z,100.00
2022-11-07T23:41:44.776Z,100.00
2022-11-07T23:44:15.277Z,100.00
2022-11-07T23:47:01.616Z,100.00
2022-11-07T23:49:47.488Z,100.00
2022-11-07T23:52:16.261Z,100.00
2022-11-07T23:55:02.169Z,100.00
2022-11-07T23:57:30.577Z,100.00
